Time;durP1;ratioP1;P1;durP2;ratioP2;P2;SDS_P1;SDS_P2;PMS_P1;PMS_P2;Temp;Humidity;BMP_temperature;BMP_pressure;BME280_temperature;BME280_humidity;BME280_pressure;Samples;Min_cycle;Max_cycle;Signal;HPM_P1;HPM_P2
2022/09/28 00:02:13;;;;;;;0.32;0.32;;;;;;;-145.06;100.00;60892.56;5921621;23;20346;-93
2022/09/28 00:04:53;;;;;;;0.20;0.20;;;;;;;-145.06;100.00;60892.56;5921110;23;20014;-93
2022/09/28 00:07:31;;;;;;;0.50;0.32;;;;;;;-145.06;100.00;60892.56;5921337;23;20010;-91
2022/09/28 00:10:11;;;;;;;0.30;0.30;;;;;;;-145.06;100.00;60892.56;5922279;23;20006;-91
2022/09/28 00:12:50;;;;;;;0.30;0.22;;;;;;;-145.06;100.00;60892.56;5922118;23;20010;-92
2022/09/28 00:15:30;;;;;;;0.25;0.22;;;;;;;-145.06;100.00;60892.56;5922163;23;20002;-91
2022/09/28 00:18:09;;;;;;;0.37;0.30;;;;;;;-145.06;100.00;60892.56;5921808;23;20089;-93
2022/09/28 00:20:58;;;;;;;0.20;0.20;;;;;;;-145.06;100.00;60892.56;5921796;23;20013;-92
2022/09/28 00:26:39;;;;;;;0.20;0.20;;;;;;;-145.06;100.00;60892.56;5931540;23;20238;-92
2022/09/28 00:29:30;;;;;;;0.20;0.20;;;;;;;-145.06;100.00;60892.56;5921495;23;20010;-93
2022/09/28 00:32:12;;;;;;;0.82;0.30;;;;;;;-145.06;100.00;60892.56;5920727;23;20013;-93
2022/09/28 00:34:51;;;;;;;0.63;0.28;;;;;;;-145.06;100.00;60892.56;5921712;23;20029;-92
2022/09/28 00:37:31;;;;;;;0.40;0.30;;;;;;;-145.06;100.00;60892.56;5921804;23;20041;-91
2022/09/28 00:40:10;;;;;;;0.38;0.38;;;;;;;-145.06;100.00;60892.56;5922062;23;20006;-91
2022/09/28 00:42:50;;;;;;;0.20;0.20;;;;;;;-145.06;100.00;60892.56;5922224;23;20077;-93
2022/09/28 00:45:29;;;;;;;0.30;0.30;;;;;;;-145.06;100.00;60892.56;5921781;23;20002;-92
2022/09/28 00:48:08;;;;;;;0.52;0.32;;;;;;;-145.06;100.00;60892.56;5921938;23;20010;-92
2022/09/28 00:50:47;;;;;;;0.45;0.22;;;;;;;-145.06;100.00;60892.56;5921608;23;20006;-93
2022/09/28 00:53:31;;;;;;;0.65;0.30;;;;;;;-145.06;100.00;60892.56;5921822;23;20010;-92
2022/09/28 00:56:17;;;;;;;0.40;0.30;;;;;;;-145.06;100.00;60892.56;5921264;23;20009;-93
2022/09/28 00:58:58;;;;;;;0.55;0.30;;;;;;;-145.06;100.00;60892.56;5922421;23;20058;-91
2022/09/28 01:01:37;;;;;;;0.45;0.30;;;;;;;-145.06;100.00;60892.56;5921522;23;20306;-93
2022/09/28 01:04:17;;;;;;;0.30;0.30;;;;;;;-145.06;100.00;60892.56;5922068;23;20089;-91
2022/09/28 01:06:57;;;;;;;0.40;0.30;;;;;;;-145.06;100.00;60892.56;5921527;23;20161;-91
2022/09/28 01:09:39;;;;;;;1.10;0.50;;;;;;;-145.06;100.00;60892.56;5921792;23;20006;-93
2022/09/28 01:12:19;;;;;;;1.00;0.55;;;;;;;-145.06;100.00;60892.56;5922632;23;20009;-91
2022/09/28 01:15:00;;;;;;;0.50;0.30;;;;;;;-145.06;100.00;60892.56;5921657;23;20002;-92
2022/09/28 01:18:01;;;;;;;0.60;0.40;;;;;;;-145.06;100.00;60892.56;5922179;23;20005;-93
2022/09/28 01:20:56;;;;;;;0.65;0.50;;;;;;;-145.06;100.00;60892.56;5922126;23;20033;-92
2022/09/28 01:24:12;;;;;;;1.80;0.77;;;;;;;-145.06;100.00;60892.56;5922711;23;20002;-93
2022/09/28 01:27:17;;;;;;;0.98;0.50;;;;;;;-145.06;100.00;60892.56;5915915;23;20002;-92
2022/09/28 01:30:06;;;;;;;0.80;0.57;;;;;;;-145.06;100.00;60892.56;5921783;23;20006;-92
2022/09/28 01:32:45;;;;;;;0.57;0.50;;;;;;;-145.06;100.00;60892.56;5935312;23;20006;-93
2022/09/28 01:35:38;;;;;;;0.60;0.60;;;;;;;-145.06;100.00;60892.56;5933250;23;20022;-91
2022/09/28 01:38:23;;;;;;;0.80;0.50;;;;;;;-145.06;100.00;60892.56;5922938;23;20034;-93
2022/09/28 01:41:04;;;;;;;0.73;0.70;;;;;;;-145.06;100.00;60892.56;5921671;23;20037;-91
2022/09/28 01:43:55;;;;;;;0.60;0.60;;;;;;;-145.06;100.00;60892.56;5922607;23;20441;-91
2022/09/28 01:46:45;;;;;;;0.98;0.60;;;;;;;-145.06;100.00;60892.56;5922686;23;20010;-92
2022/09/28 01:49:39;;;;;;;0.88;0.50;;;;;;;-145.06;100.00;60892.56;5923783;23;20005;-91
2022/09/28 01:52:26;;;;;;;0.93;0.40;;;;;;;-145.06;100.00;60892.56;5923703;23;20006;-91
2022/09/28 01:55:38;;;;;;;1.20;0.57;;;;;;;-145.06;100.00;60892.56;5923605;23;20578;-92
2022/09/28 01:58:37;;;;;;;0.50;0.50;;;;;;;-145.06;100.00;60892.56;5923665;23;20021;-92
2022/09/28 02:01:23;;;;;;;1.00;0.70;;;;;;;-145.06;100.00;60892.56;5923301;23;20010;-92
2022/09/28 02:04:12;;;;;;;0.68;0.55;;;;;;;-145.06;100.00;60892.56;5924087;23;20033;-92
2022/09/28 02:06:56;;;;;;;0.60;0.47;;;;;;;-145.06;100.00;60892.56;5923088;23;20428;-91
2022/09/28 02:09:46;;;;;;;0.30;0.30;;;;;;;-145.06;100.00;60892.56;5922710;23;20084;-93
2022/09/28 02:12:56;;;;;;;0.63;0.50;;;;;;;-145.06;100.00;60892.56;5923345;23;20010;-92
2022/09/28 02:15:43;;;;;;;0.40;0.40;;;;;;;-145.06;100.00;60892.56;5922816;23;20002;-91
2022/09/28 02:18:23;;;;;;;0.63;0.50;;;;;;;-145.06;100.00;60892.56;5923868;23;20010;-93
2022/09/28 02:21:14;;;;;;;0.57;0.50;;;;;;;-145.06;100.00;60892.56;5923213;23;20038;-91
2022/09/28 02:24:01;;;;;;;1.42;0.57;;;;;;;-145.06;100.00;60892.56;5923441;23;20445;-91
2022/09/28 02:26:44;;;;;;;1.13;0.60;;;;;;;-145.06;100.00;60892.56;5923844;23;20445;-93
2022/09/28 02:29:24;;;;;;;0.90;0.70;;;;;;;-145.06;100.00;60892.56;5924334;23;20115;-90
2022/09/28 02:32:04;;;;;;;0.60;0.60;;;;;;;-145.06;100.00;60892.56;5924066;23;20033;-92
2022/09/28 02:34:43;;;;;;;0.60;0.55;;;;;;;-145.06;100.00;60892.56;5923859;23;20010;-92
2022/09/28 02:37:22;;;;;;;0.60;0.40;;;;;;;-145.06;100.00;60892.56;5923700;23;20322;-91
2022/09/28 02:40:03;;;;;;;1.52;0.63;;;;;;;-145.06;100.00;60892.56;5923470;23;20014;-92
2022/09/28 02:42:55;;;;;;;1.00;0.60;;;;;;;-145.06;100.00;60892.56;5922779;23;20037;-92
2022/09/28 02:46:12;;;;;;;0.30;0.30;;;;;;;-145.06;100.00;60892.56;5923902;23;20006;-92
2022/09/28 02:49:12;;;;;;;0.93;0.60;;;;;;;-145.06;100.00;60892.56;5923493;23;20037;-92
2022/09/28 02:52:00;;;;;;;0.50;0.40;;;;;;;-145.06;100.00;60892.56;5922847;23;20425;-91
2022/09/28 02:54:48;;;;;;;0.47;0.40;;;;;;;-145.06;100.00;60892.56;5922792;23;20292;-92
2022/09/28 02:57:45;;;;;;;0.70;0.50;;;;;;;-145.06;100.00;60892.56;5922916;23;20010;-91
2022/09/28 03:00:24;;;;;;;0.50;0.50;;;;;;;-145.06;100.00;60892.56;5923114;23;20010;-91
2022/09/28 03:03:18;;;;;;;0.55;0.55;;;;;;;-145.06;100.00;60892.56;5922079;23;20014;-92
2022/09/28 03:06:06;;;;;;;1.13;0.60;;;;;;;-145.06;100.00;60892.56;5922757;23;20009;-92
2022/09/28 03:09:03;;;;;;;0.63;0.60;;;;;;;-145.06;100.00;60892.56;5923169;23;20006;-92
2022/09/28 03:11:50;;;;;;;0.77;0.77;;;;;;;-145.06;100.00;60892.56;5922779;23;20005;-91
2022/09/28 03:14:29;;;;;;;0.70;0.60;;;;;;;-145.06;100.00;60892.56;5923651;23;20006;-91
2022/09/28 03:17:10;;;;;;;1.20;0.75;;;;;;;-145.06;100.00;60892.56;5923054;23;20299;-91
2022/09/28 03:19:49;;;;;;;1.77;0.55;;;;;;;-145.06;100.00;60892.56;5923395;23;20005;-92
2022/09/28 03:22:31;;;;;;;1.10;0.52;;;;;;;-145.06;100.00;60892.56;5922808;23;20006;-92
2022/09/28 03:25:11;;;;;;;0.95;0.70;;;;;;;-145.06;100.00;60892.56;5922978;23;20002;-93
2022/09/28 03:27:50;;;;;;;1.07;0.70;;;;;;;-145.06;100.00;60892.56;5923239;23;20010;-93
2022/09/28 03:30:29;;;;;;;0.88;0.88;;;;;;;-145.06;100.00;60892.56;5922584;23;20010;-93
2022/09/28 03:33:08;;;;;;;1.30;0.68;;;;;;;-145.06;100.00;60892.56;5922661;23;20010;-92
2022/09/28 03:35:51;;;;;;;0.83;0.70;;;;;;;-145.06;100.00;60892.56;5922753;23;20025;-92
2022/09/28 03:38:30;;;;;;;1.48;0.80;;;;;;;-145.06;100.00;60892.56;5922723;23;20688;-91
2022/09/28 03:41:09;;;;;;;1.50;0.80;;;;;;;-145.06;100.00;60892.56;5922682;23;20014;-91
2022/09/28 03:43:48;;;;;;;0.50;0.50;;;;;;;-145.06;100.00;60892.56;5922443;23;20005;-93
2022/09/28 03:46:27;;;;;;;1.00;0.70;;;;;;;-145.06;100.00;60892.56;5922910;23;20318;-90
2022/09/28 03:49:06;;;;;;;0.97;0.63;;;;;;;-145.06;100.00;60892.56;5922496;23;20010;-90
2022/09/28 03:51:46;;;;;;;1.95;0.90;;;;;;;-145.06;100.00;60892.56;5922432;23;20005;-93
2022/09/28 03:54:24;;;;;;;1.02;0.70;;;;;;;-145.06;100.00;60892.56;5922793;23;20006;-93
2022/09/28 03:57:04;;;;;;;1.13;0.67;;;;;;;-145.06;100.00;60892.56;5924689;23;20009;-92
2022/09/28 03:59:43;;;;;;;0.70;0.70;;;;;;;-145.06;100.00;60892.56;5938747;23;20250;-91
2022/09/28 04:02:23;;;;;;;1.33;0.70;;;;;;;-145.06;100.00;60892.56;5928283;23;20021;-92
2022/09/28 04:05:02;;;;;;;0.93;0.80;;;;;;;-145.06;100.00;60892.56;5923099;23;20010;-90
2022/09/28 04:07:41;;;;;;;0.80;0.60;;;;;;;-145.06;100.00;60892.56;5923383;23;20006;-91
2022/09/28 04:10:19;;;;;;;0.90;0.63;;;;;;;-145.06;100.00;60892.56;5922735;23;20006;-90
2022/09/28 04:13:15;;;;;;;0.70;0.70;;;;;;;-145.06;100.00;60892.56;5923125;23;20014;-93
2022/09/28 04:15:56;;;;;;;1.50;0.80;;;;;;;-145.06;100.00;60892.56;5917753;23;20033;-93
2022/09/28 04:18:35;;;;;;;1.52;0.90;;;;;;;-145.06;100.00;60892.56;5920343;23;20022;-93
2022/09/28 04:21:16;;;;;;;0.85;0.60;;;;;;;-145.06;100.00;60892.56;5919641;23;20318;-92
2022/09/28 04:23:58;;;;;;;1.00;0.60;;;;;;;-145.06;100.00;60892.56;5919520;23;20009;-92
2022/09/28 04:26:37;;;;;;;0.80;0.60;;;;;;;-145.06;100.00;60892.56;5916476;23;20013;-92
2022/09/28 04:29:16;;;;;;;0.90;0.80;;;;;;;-145.06;100.00;60892.56;5918748;23;20010;-90
2022/09/28 04:31:55;;;;;;;2.97;0.80;;;;;;;-145.06;100.00;60892.56;5916794;23;20437;-92
2022/09/28 04:34:34;;;;;;;0.80;0.70;;;;;;;-145.06;100.00;60892.56;5918004;23;20006;-92
2022/09/28 04:37:13;;;;;;;0.90;0.67;;;;;;;-145.06;100.00;60892.56;5919461;23;20326;-92
2022/09/28 04:39:53;;;;;;;1.55;0.70;;;;;;;-145.06;100.00;60892.56;5920617;23;20250;-94
2022/09/28 04:42:32;;;;;;;1.30;0.90;;;;;;;-145.06;100.00;60892.56;5921266;23;20436;-91
2022/09/28 04:45:11;;;;;;;1.52;0.70;;;;;;;-145.06;100.00;60892.56;5919481;23;20469;-91
2022/09/28 04:47:50;;;;;;;0.38;0.38;;;;;;;-145.06;100.00;60892.56;5919900;23;20014;-90
2022/09/28 04:50:29;;;;;;;0.82;0.60;;;;;;;-145.06;100.00;60892.56;5919352;23;20010;-90
2022/09/28 04:53:08;;;;;;;1.05;0.52;;;;;;;-145.06;100.00;60892.56;5920865;23;20010;-91
2022/09/28 04:56:13;;;;;;;1.33;0.60;;;;;;;-145.06;100.00;60892.56;5919432;23;20009;-92
2022/09/28 04:58:53;;;;;;;0.98;0.60;;;;;;;-145.06;100.00;60892.56;5921205;23;20006;-90
2022/09/28 05:01:32;;;;;;;1.15;0.60;;;;;;;-145.06;100.00;60892.56;5919828;23;20014;-92
2022/09/28 05:04:11;;;;;;;0.87;0.60;;;;;;;-145.06;100.00;60892.56;5919573;23;20006;-92
2022/09/28 05:06:50;;;;;;;0.60;0.50;;;;;;;-145.06;100.00;60892.56;5921003;23;20013;-92
2022/09/28 05:09:29;;;;;;;0.55;0.40;;;;;;;-145.06;100.00;60892.56;5921036;23;20010;-92
2022/09/28 05:12:27;;;;;;;0.52;0.45;;;;;;;-145.06;100.00;60892.56;5921517;23;20006;-90
2022/09/28 05:15:06;;;;;;;0.47;0.47;;;;;;;-145.06;100.00;60892.56;5921017;23;20594;-92
2022/09/28 05:17:45;;;;;;;0.60;0.50;;;;;;;-145.06;100.00;60892.56;5920924;23;20338;-93
2022/09/28 05:20:25;;;;;;;0.90;0.45;;;;;;;-145.06;100.00;60892.56;5920952;23;20187;-93
2022/09/28 05:23:04;;;;;;;0.50;0.50;;;;;;;-145.06;100.00;60892.56;5921137;23;20061;-91
2022/09/28 05:25:46;;;;;;;0.80;0.70;;;;;;;-145.06;100.00;60892.56;5920938;23;20014;-91
2022/09/28 05:28:30;;;;;;;0.70;0.50;;;;;;;-145.06;100.00;60892.56;5920939;23;20325;-92
2022/09/28 05:31:10;;;;;;;1.23;0.75;;;;;;;-145.06;100.00;60892.56;5922439;23;20437;-91
2022/09/28 05:33:49;;;;;;;1.45;0.80;;;;;;;-145.06;100.00;60892.56;5922230;23;20314;-92
2022/09/28 05:36:31;;;;;;;0.80;0.63;;;;;;;-145.06;100.00;60892.56;5921795;23;20025;-91
2022/09/28 05:39:10;;;;;;;1.48;0.63;;;;;;;-145.06;100.00;60892.56;5922470;23;20006;-92
2022/09/28 05:41:49;;;;;;;1.33;0.93;;;;;;;-145.06;100.00;60892.56;5922592;23;20034;-91
2022/09/28 05:44:28;;;;;;;2.20;0.80;;;;;;;-145.06;100.00;60892.56;5922641;23;20006;-91
2022/09/28 05:47:08;;;;;;;0.73;0.73;;;;;;;-145.06;100.00;60892.56;5922866;23;20345;-91
2022/09/28 05:49:46;;;;;;;1.25;0.65;;;;;;;-145.06;100.00;60892.56;5923233;23;20010;-91
2022/09/28 05:52:26;;;;;;;2.78;1.20;;;;;;;-145.06;100.00;60892.56;5922821;23;20006;-90
2022/09/28 05:55:06;;;;;;;1.55;0.70;;;;;;;-145.06;100.00;60892.56;5922901;23;20029;-92
2022/09/28 05:57:45;;;;;;;0.98;0.70;;;;;;;-145.06;100.00;60892.56;5923476;23;20002;-91
2022/09/28 06:00:26;;;;;;;1.02;0.80;;;;;;;-145.06;100.00;60892.56;5923031;23;20010;-92
2022/09/28 06:03:07;;;;;;;0.65;0.55;;;;;;;-145.06;100.00;60892.56;5923857;23;20010;-92
2022/09/28 06:05:47;;;;;;;0.85;0.63;;;;;;;-145.06;100.00;60892.56;5923181;23;20010;-93
2022/09/28 06:08:26;;;;;;;1.05;0.95;;;;;;;-145.06;100.00;60892.56;5923273;23;20006;-92
2022/09/28 06:11:05;;;;;;;1.42;0.70;;;;;;;-145.06;100.00;60892.56;5922780;23;20006;-91
2022/09/28 06:13:44;;;;;;;1.50;0.77;;;;;;;-145.06;100.00;60892.56;5923365;23;20354;-92
2022/09/28 06:16:23;;;;;;;0.70;0.67;;;;;;;-145.06;100.00;60892.56;5922427;23;20173;-92
2022/09/28 06:19:02;;;;;;;0.50;0.50;;;;;;;-145.06;100.00;60892.56;5923814;23;20238;-91
2022/09/28 06:21:41;;;;;;;0.70;0.70;;;;;;;-145.06;100.00;60892.56;5923022;23;20010;-92
2022/09/28 06:24:20;;;;;;;0.82;0.60;;;;;;;-145.06;100.00;60892.56;5923036;23;20006;-91
2022/09/28 06:26:59;;;;;;;1.33;0.90;;;;;;;-145.06;100.00;60892.56;5923193;23;20057;-91
2022/09/28 06:29:38;;;;;;;1.30;0.70;;;;;;;-145.06;100.00;60892.56;5924028;23;20006;-92
2022/09/28 06:32:18;;;;;;;0.93;0.60;;;;;;;-145.06;100.00;60892.56;5924661;23;20009;-90
2022/09/28 06:34:59;;;;;;;1.55;0.70;;;;;;;-145.06;100.00;60892.56;5925164;23;20006;-92
2022/09/28 06:37:39;;;;;;;2.13;0.80;;;;;;;-145.06;100.00;60892.56;5924567;23;20006;-92
2022/09/28 06:40:20;;;;;;;1.15;0.90;;;;;;;-145.06;100.00;60892.56;5924460;23;20010;-92
2022/09/28 06:43:01;;;;;;;2.08;1.10;;;;;;;-145.06;100.00;60892.56;5925014;23;20448;-92
2022/09/28 06:45:42;;;;;;;1.38;1.00;;;;;;;-145.06;100.00;60892.56;5924110;23;20054;-91
2022/09/28 06:48:20;;;;;;;0.93;0.80;;;;;;;-145.06;100.00;60892.56;5924749;23;20006;-94
2022/09/28 06:51:04;;;;;;;1.60;0.63;;;;;;;-145.06;100.00;60892.56;5924784;23;20006;-91
2022/09/28 06:53:52;;;;;;;0.63;0.60;;;;;;;-145.06;100.00;60892.56;5925009;23;20009;-92
2022/09/28 06:56:35;;;;;;;1.00;0.90;;;;;;;-145.06;100.00;60892.56;5924111;23;20010;-92
2022/09/28 06:59:15;;;;;;;1.27;0.90;;;;;;;-145.06;100.00;60892.56;5925101;23;20010;-92
2022/09/28 07:01:59;;;;;;;1.05;0.70;;;;;;;-145.06;100.00;60892.56;5924483;23;20010;-92
2022/09/28 07:04:42;;;;;;;0.80;0.80;;;;;;;-145.06;100.00;60892.56;5924204;23;20025;-91
2022/09/28 07:07:21;;;;;;;0.93;0.52;;;;;;;-145.06;100.00;60892.56;5924228;23;20433;-91
2022/09/28 07:10:00;;;;;;;0.90;0.80;;;;;;;-145.06;100.00;60892.56;5924661;23;20330;-91
2022/09/28 07:12:43;;;;;;;1.00;0.77;;;;;;;-145.06;100.00;60892.56;5924710;23;20010;-91
2022/09/28 07:15:28;;;;;;;1.10;0.80;;;;;;;-145.06;100.00;60892.56;5924267;23;20006;-90
2022/09/28 07:18:12;;;;;;;1.42;0.60;;;;;;;-145.06;100.00;60892.56;5924322;23;20010;-92
2022/09/28 07:20:52;;;;;;;1.13;0.70;;;;;;;-145.06;100.00;60892.56;5924208;23;20009;-92
2022/09/28 07:23:33;;;;;;;1.00;0.60;;;;;;;-145.06;100.00;60892.56;5923735;23;20009;-91
2022/09/28 07:26:15;;;;;;;0.75;0.60;;;;;;;-145.06;100.00;60892.56;5924034;23;20005;-91
2022/09/28 07:28:54;;;;;;;1.40;0.85;;;;;;;-145.06;100.00;60892.56;5925003;23;20160;-91
2022/09/28 07:31:34;;;;;;;1.10;0.80;;;;;;;-145.06;100.00;60892.56;5924630;23;20010;-92
2022/09/28 07:34:13;;;;;;;1.27;0.90;;;;;;;-145.06;100.00;60892.56;5923884;23;20026;-91
2022/09/28 07:36:56;;;;;;;0.90;0.73;;;;;;;-145.06;100.00;60892.56;5923471;23;20010;-91
2022/09/28 07:41:10;;;;;;;1.50;0.70;;;;;;;-145.06;100.00;60892.56;5924171;23;20005;-91
2022/09/28 07:42:37;;;;;;;0.80;0.63;;;;;;;-145.06;100.00;60892.56;5925115;23;20034;-91
2022/09/28 07:45:17;;;;;;;0.85;0.70;;;;;;;-145.06;100.00;60892.56;5923596;23;20010;-91
2022/09/28 07:47:56;;;;;;;2.20;0.95;;;;;;;-145.06;100.00;60892.56;5924817;23;20010;-90
2022/09/28 07:50:38;;;;;;;0.65;0.60;;;;;;;-145.06;100.00;60892.56;5923289;23;20172;-92
2022/09/28 07:53:19;;;;;;;1.05;0.65;;;;;;;-145.06;100.00;60892.56;5924753;23;20010;-93
2022/09/28 07:56:07;;;;;;;1.30;0.70;;;;;;;-145.06;100.00;60892.56;5923702;23;20006;-92
2022/09/28 07:58:48;;;;;;;0.80;0.52;;;;;;;-145.06;100.00;60892.56;5923171;23;20010;-91
2022/09/28 08:01:29;;;;;;;;;;;;;;;-145.06;100.00;60892.56;5924290;23;20006;-91
2022/09/28 08:04:08;;;;;;;0.50;0.50;;;;;;;-145.06;100.00;60892.56;5924476;23;20328;-91
2022/09/28 08:06:53;;;;;;;0.60;0.50;;;;;;;-145.06;100.00;60892.56;5923456;23;20010;-90
2022/09/28 08:09:33;;;;;;;0.50;0.50;;;;;;;-145.06;100.00;60892.56;5924029;23;20006;-92
2022/09/28 08:12:12;;;;;;;0.90;0.60;;;;;;;-145.06;100.00;60892.56;5922855;23;20009;-92
2022/09/28 08:14:52;;;;;;;1.05;0.50;;;;;;;-145.06;100.00;60892.56;5924208;23;20057;-91
2022/09/28 08:17:32;;;;;;;0.93;0.52;;;;;;;-145.06;100.00;60892.56;5924322;23;20065;-91
2022/09/28 08:23:10;;;;;;;0.80;0.40;;;;;;;-145.06;100.00;60892.56;5935040;23;20009;-91
2022/09/28 08:25:52;;;;;;;0.60;0.43;;;;;;;-145.06;100.00;60892.56;5923432;23;20010;-91
2022/09/28 08:28:32;;;;;;;2.15;0.50;;;;;;;-145.06;100.00;60892.56;5923949;23;20006;-90
2022/09/28 08:31:11;;;;;;;1.60;0.70;;;;;;;-145.06;100.00;60892.56;5923622;23;20306;-91
2022/09/28 08:33:52;;;;;;;0.70;0.50;;;;;;;-145.06;100.00;60892.56;5923037;23;20006;-92
2022/09/28 08:36:33;;;;;;;0.73;0.50;;;;;;;-145.06;100.00;60892.56;5923347;23;20010;-91
2022/09/28 08:39:12;;;;;;;1.00;0.43;;;;;;;-145.06;100.00;60892.56;5923532;23;20010;-91
2022/09/28 08:42:09;;;;;;;0.50;0.45;;;;;;;-145.06;100.00;60892.56;5923667;23;20058;-91
2022/09/28 08:44:57;;;;;;;0.70;0.50;;;;;;;-145.06;100.00;60892.56;5923061;23;20033;-91
2022/09/28 08:51:08;;;;;;;0.68;0.43;;;;;;;-145.06;100.00;60892.56;5933927;23;20010;-91
2022/09/28 08:54:07;;;;;;;1.08;0.60;;;;;;;-145.06;100.00;60892.56;5922714;23;19998;-92
2022/09/28 08:56:59;;;;;;;0.82;0.65;;;;;;;-145.06;100.00;60892.56;5923923;23;20021;-93
2022/09/28 08:59:54;;;;;;;1.27;0.88;;;;;;;-145.06;100.00;60892.56;5923046;23;20429;-91
2022/09/28 09:02:39;;;;;;;1.08;0.60;;;;;;;-145.06;100.00;60892.56;5922338;23;20010;-91
2022/09/28 09:05:27;;;;;;;0.35;0.35;;;;;;;-145.06;100.00;60892.56;5922873;23;20010;-92
2022/09/28 09:08:28;;;;;;;0.77;0.50;;;;;;;-145.06;100.00;60892.56;5923856;23;20139;-91
2022/09/28 09:11:23;;;;;;;0.60;0.40;;;;;;;-145.06;100.00;60892.56;5944217;23;20006;-92
2022/09/28 09:14:08;;;;;;;0.40;0.38;;;;;;;-145.06;100.00;60892.56;5923073;23;20002;-92
2022/09/28 09:16:48;;;;;;;0.50;0.30;;;;;;;-145.06;100.00;60892.56;5922444;23;20037;-90
2022/09/28 09:19:45;;;;;;;0.70;0.50;;;;;;;-145.06;100.00;60892.56;5922977;23;20330;-91
2022/09/28 09:22:29;;;;;;;2.70;0.50;;;;;;;-145.06;100.00;60892.56;5922579;23;20092;-92
2022/09/28 09:25:24;;;;;;;0.93;0.50;;;;;;;-145.06;100.00;60892.56;5921554;23;20010;-90
2022/09/28 09:28:34;;;;;;;0.80;0.50;;;;;;;-145.06;100.00;60892.56;5921849;23;20010;-91
2022/09/28 09:31:32;;;;;;;1.23;0.60;;;;;;;-145.06;100.00;60892.56;5922703;23;20013;-92
2022/09/28 09:34:30;;;;;;;1.17;0.65;;;;;;;-145.06;100.00;60892.56;5923099;23;20002;-90
2022/09/28 09:37:39;;;;;;;0.70;0.50;;;;;;;-145.06;100.00;60892.56;5922998;23;20002;-91
2022/09/28 09:40:34;;;;;;;0.75;0.57;;;;;;;-145.06;100.00;60892.56;5922790;23;20318;-92
2022/09/28 09:43:29;;;;;;;1.23;0.60;;;;;;;-145.06;100.00;60892.56;5922675;23;20010;-90
2022/09/28 09:46:35;;;;;;;1.42;0.75;;;;;;;-145.06;100.00;60892.56;5922940;23;20057;-90
2022/09/28 09:49:23;;;;;;;1.05;0.60;;;;;;;-145.06;100.00;60892.56;5923564;23;20072;-92
2022/09/28 09:52:14;;;;;;;0.85;0.60;;;;;;;-145.06;100.00;60892.56;5923244;23;20080;-92
2022/09/28 09:55:04;;;;;;;2.70;0.70;;;;;;;-145.06;100.00;60892.56;5922570;23;20009;-92
2022/09/28 09:57:50;;;;;;;0.68;0.60;;;;;;;-145.06;100.00;60892.56;5922789;23;20014;-92
2022/09/28 10:00:36;;;;;;;1.35;0.60;;;;;;;-145.06;100.00;60892.56;5922927;23;20287;-91
2022/09/28 10:03:29;;;;;;;0.60;0.60;;;;;;;-145.06;100.00;60892.56;5902925;23;20014;-90
2022/09/28 10:06:31;;;;;;;0.57;0.50;;;;;;;-145.06;100.00;60892.56;5924748;23;20002;-92
2022/09/28 10:09:29;;;;;;;0.88;0.60;;;;;;;-145.06;100.00;60892.56;5924416;23;20006;-92
2022/09/28 10:12:14;;;;;;;0.55;0.52;;;;;;;-145.06;100.00;60892.56;5924379;23;20002;-92
2022/09/28 10:14:54;;;;;;;1.00;0.70;;;;;;;-145.06;100.00;60892.56;5904846;23;20010;-92
2022/09/28 10:17:57;;;;;;;1.08;0.70;;;;;;;-145.06;100.00;60892.56;5924473;23;20029;-91
2022/09/28 10:20:47;;;;;;;0.73;0.50;;;;;;;-145.06;100.00;60892.56;5924927;23;20010;-92
2022/09/28 10:23:42;;;;;;;1.02;0.40;;;;;;;-145.06;100.00;60892.56;5924617;23;20005;-92
2022/09/28 10:26:45;;;;;;;0.30;0.30;;;;;;;-145.06;100.00;60892.56;5924651;23;20010;-92
2022/09/28 10:30:21;;;;;;;0.68;0.40;;;;;;;-145.06;100.00;60892.56;5903681;23;20044;-92
2022/09/28 10:33:03;;;;;;;0.45;0.35;;;;;;;-145.06;100.00;60892.56;5911476;23;20001;-91
2022/09/28 10:35:42;;;;;;;0.93;0.50;;;;;;;-145.06;100.00;60892.56;5923893;23;19998;-90
2022/09/28 10:38:32;;;;;;;0.40;0.30;;;;;;;-145.06;100.00;60892.56;5923822;23;20006;-93
2022/09/28 10:41:30;;;;;;;1.20;0.50;;;;;;;-145.06;100.00;60892.56;5924308;23;20033;-91
2022/09/28 10:44:16;;;;;;;0.43;0.40;;;;;;;-145.06;100.00;60892.56;5905537;23;20010;-92
2022/09/28 10:47:01;;;;;;;0.88;0.57;;;;;;;-145.06;100.00;60892.56;5923551;23;20468;-90
2022/09/28 10:49:48;;;;;;;0.50;0.40;;;;;;;-145.06;100.00;60892.56;5924355;23;20010;-91
2022/09/28 10:56:44;;;;;;;0.50;0.40;;;;;;;-145.06;100.00;60892.56;5848037;23;20031;-92
2022/09/28 11:03:03;;;;;;;1.05;0.40;;;;;;;-145.06;100.00;60892.56;5906298;23;20014;-92
2022/09/28 11:06:09;;;;;;;1.00;0.40;;;;;;;-145.06;100.00;60892.56;5924207;23;20009;-92
2022/09/28 11:08:56;;;;;;;0.43;0.20;;;;;;;-145.06;100.00;60892.56;5923431;23;20029;-92
2022/09/28 11:15:41;;;;;;;0.20;0.20;;;;;;;-145.06;100.00;60892.56;5877542;23;20493;-91
2022/09/28 11:18:33;;;;;;;0.30;0.30;;;;;;;-145.06;100.00;60892.56;5924519;23;20080;-92
2022/09/28 11:21:31;;;;;;;1.60;0.40;;;;;;;-145.06;100.00;60892.56;5922999;23;20010;-92
2022/09/28 11:25:20;;;;;;;0.38;0.30;;;;;;;-145.06;100.00;60892.56;5924185;23;20006;-91
2022/09/28 11:28:18;;;;;;;0.60;0.35;;;;;;;-145.06;100.00;60892.56;5845702;23;20007;-92
2022/09/28 11:43:02;;;;;;;;;;;;;;;;;;;;;
2022/09/28 11:46:00;;;;;;;0.83;0.30;;;;;;;-145.06;100.00;60892.56;5900716;23;20037;-92
2022/09/28 11:49:40;;;;;;;;;;;;;;;;;;;;;
2022/09/28 11:53:36;;;;;;;;;;;;;;;;;;;;;
2022/09/28 11:59:34;;;;;;;;;;;;;;;;;;;;;
2022/09/28 12:03:16;;;;;;;;;;;;;;;;;;;;;
2022/09/28 12:10:10;;;;;;;0.40;0.22;;;;;;;-145.06;100.00;60892.56;5884414;23;20011;-92
2022/09/28 12:13:18;;;;;;;;;;;;;;;;;;;;;
2022/09/28 12:16:18;;;;;;;0.20;0.20;;;;;;;-145.06;100.00;60892.56;5905533;23;20002;-90
2022/09/28 12:19:12;;;;;;;0.30;0.28;;;;;;;-145.06;100.00;60892.56;5895120;23;20002;-91
2022/09/28 12:22:18;;;;;;;0.60;0.25;;;;;;;-145.06;100.00;60892.56;5894742;23;20140;-92
2022/09/28 12:25:05;;;;;;;0.52;0.30;;;;;;;-145.06;100.00;60892.56;5895079;23;20003;-91
2022/09/28 12:27:59;;;;;;;0.30;0.30;;;;;;;-145.06;100.00;60892.56;5895335;23;20010;-90
2022/09/28 12:30:43;;;;;;;0.57;0.30;;;;;;;-145.06;100.00;60892.56;5894838;23;20026;-91
2022/09/28 12:33:26;;;;;;;0.55;0.30;;;;;;;-145.06;100.00;60892.56;5895577;23;20029;-91
2022/09/28 12:36:29;;;;;;;0.30;0.30;;;;;;;-145.06;100.00;60892.56;5895096;23;20026;-92
2022/09/28 12:39:42;;;;;;;0.40;0.30;;;;;;;-145.06;100.00;60892.56;5895159;23;20002;-89
2022/09/28 12:43:08;;;;;;;0.20;0.20;;;;;;;-145.06;100.00;60892.56;5895429;23;20319;-91
2022/09/28 12:46:12;;;;;;;0.52;0.30;;;;;;;-145.06;100.00;60892.56;5894924;23;20077;-90
2022/09/28 12:49:21;;;;;;;0.30;0.22;;;;;;;-145.06;100.00;60892.56;5894272;23;20010;-90
2022/09/28 12:52:38;;;;;;;0.40;0.32;;;;;;;-145.06;100.00;60892.56;5895740;23;20006;-93
2022/09/28 14:12:48;;;;;;;0.80;0.70;;;;;;;-145.06;100.00;60892.56;5888440;23;20015;-92
2022/09/28 14:15:27;;;;;;;1.02;0.60;;;;;;;-145.06;100.00;60892.56;5881290;23;20019;-92
2022/09/28 14:18:32;;;;;;;1.33;0.52;;;;;;;-145.06;100.00;60892.56;5895815;23;20010;-93
2022/09/28 14:21:40;;;;;;;0.95;0.50;;;;;;;-145.06;100.00;60892.56;5896260;23;20085;-93
2022/09/28 14:25:16;;;;;;;;;;;;;;;;;;;;;
2022/09/28 17:35:50;;;;;;;0.50;0.40;;;;;;;-145.06;100.00;60892.56;5794167;24;20028;-93
2022/09/28 17:38:30;;;;;;;0.43;0.40;;;;;;;-145.06;100.00;60892.56;5783403;24;20052;-93
2022/09/28 18:25:38;;;;;;;0.38;0.38;;;;;;;-145.06;100.00;60892.56;5885218;23;20018;-92
2022/09/28 18:32:26;;;;;;;0.55;0.30;;;;;;;-145.06;100.00;60892.56;5907163;23;20006;-95
2022/09/28 18:35:10;;;;;;;0.30;0.30;;;;;;;-145.06;100.00;60892.56;5894145;23;19998;-93
2022/09/28 18:37:50;;;;;;;0.40;0.30;;;;;;;-145.06;100.00;60892.56;5894313;23;20030;-94
2022/09/28 18:40:36;;;;;;;;;;;;;;;-145.06;100.00;60892.56;5894352;23;20014;-93
2022/09/28 18:43:59;;;;;;;0.90;0.55;;;;;;;-145.06;100.00;60892.56;5894109;23;19905;-92
2022/09/28 18:47:09;;;;;;;0.45;0.40;;;;;;;-145.06;100.00;60892.56;5895271;23;20006;-92